createdAt,value
2022-10-05T00:00:16.185Z,2.80
2022-10-05T00:02:44.581Z,2.53
2022-10-05T00:05:21.510Z,2.70
2022-10-05T00:07:49.917Z,2.73
2022-10-05T00:10:20.778Z,3.30
2022-10-05T00:12:50.087Z,3.00
2022-10-05T00:15:20.520Z,2.90
2022-10-05T00:17:48.484Z,3.10
2022-10-05T00:20:23.373Z,3.50
2022-10-05T00:22:56.670Z,3.03
2022-10-05T00:25:26.518Z,3.07
2022-10-05T00:27:57.781Z,2.80
2022-10-05T00:30:27.659Z,3.43
2022-10-05T00:32:59.500Z,3.67
2022-10-05T00:35:29.474Z,3.17
2022-10-05T00:37:57.675Z,4.53
2022-10-05T00:40:36.804Z,4.20
2022-10-05T00:43:22.885Z,3.53
2022-10-05T00:45:56.190Z,3.83
2022-10-05T00:48:33.797Z,4.33
2022-10-05T00:51:18.564Z,3.83
2022-10-05T00:53:55.806Z,4.77
2022-10-05T00:56:44.701Z,8.03
2022-10-05T00:59:25.901Z,4.63
2022-10-05T01:02:01.055Z,5.83
2022-10-05T01:04:40.697Z,8.67
2022-10-05T01:07:17.069Z,9.10
2022-10-05T01:09:54.360Z,5.40
2022-10-05T01:12:28.201Z,4.93
2022-10-05T01:15:06.336Z,5.07
2022-10-05T01:17:41.884Z,5.27
2022-10-05T01:20:27.875Z,6.10
2022-10-05T01:23:20.232Z,6.30
2022-10-05T01:25:58.060Z,4.97
2022-10-05T01:28:31.516Z,4.53
2022-10-05T01:31:05.357Z,6.03
2022-10-05T01:33:38.432Z,4.30
2022-10-05T01:36:15.601Z,4.50
2022-10-05T01:38:49.827Z,4.33
2022-10-05T01:41:32.320Z,4.10
2022-10-05T01:44:06.848Z,5.10
2022-10-05T01:46:39.983Z,5.47
2022-10-05T01:49:24.407Z,4.13
2022-10-05T01:52:05.556Z,4.33
2022-10-05T01:54:43.182Z,3.93
2022-10-05T01:57:22.665Z,5.73
2022-10-05T02:00:05.292Z,4.00
2022-10-05T02:02:37.596Z,4.30
2022-10-05T02:05:09.966Z,4.57
2022-10-05T02:07:42.555Z,4.20
2022-10-05T02:10:18.214Z,4.53
2022-10-05T02:12:50.941Z,3.70
2022-10-05T02:15:25.199Z,3.30
2022-10-05T02:17:59.201Z,3.80
2022-10-05T02:20:31.283Z,4.33
2022-10-05T02:23:03.776Z,3.90
2022-10-05T02:25:36.317Z,3.87
2022-10-05T02:28:11.152Z,3.70
2022-10-05T02:30:44.409Z,3.40
2022-10-05T02:33:19.260Z,3.73
2022-10-05T02:35:47.585Z,3.80
2022-10-05T02:38:26.367Z,3.77
2022-10-05T02:41:02.889Z,4.03
2022-10-05T02:43:40.403Z,3.50
2022-10-05T02:46:20.596Z,3.60
2022-10-05T02:48:57.718Z,5.23
2022-10-05T02:51:29.908Z,3.57
2022-10-05T02:54:08.201Z,3.87
2022-10-05T02:56:46.223Z,4.90
2022-10-05T02:59:24.248Z,3.60
2022-10-05T03:01:58.320Z,4.03
2022-10-05T03:04:35.597Z,4.20
2022-10-05T03:07:15.335Z,3.53
2022-10-05T03:09:50.622Z,3.80
2022-10-05T03:12:43.869Z,3.63
2022-10-05T03:15:25.342Z,3.60
2022-10-05T03:18:05.152Z,3.80
2022-10-05T03:20:43.921Z,4.50
2022-10-05T03:23:19.440Z,3.53
2022-10-05T03:26:04.183Z,3.60
2022-10-05T03:28:38.343Z,3.83
2022-10-05T03:31:14.499Z,4.70
2022-10-05T03:33:50.007Z,4.53
2022-10-05T03:36:27.554Z,4.03
2022-10-05T03:39:03.091Z,3.97
2022-10-05T03:41:38.362Z,4.27
2022-10-05T03:44:19.645Z,4.07
2022-10-05T03:47:12.828Z,5.17
2022-10-05T03:49:53.794Z,4.30
2022-10-05T03:52:27.486Z,4.27
2022-10-05T03:55:00.836Z,3.77
2022-10-05T03:57:33.648Z,4.27
2022-10-05T04:00:06.662Z,3.87
2022-10-05T04:02:41.049Z,3.53
2022-10-05T04:05:18.335Z,2.87
2022-10-05T04:07:52.210Z,3.97
2022-10-05T04:10:25.448Z,3.90
2022-10-05T04:12:59.965Z,3.17
2022-10-05T04:15:33.356Z,7.10
2022-10-05T04:18:06.744Z,3.40
2022-10-05T04:20:44.213Z,4.00
2022-10-05T04:23:22.502Z,4.20
2022-10-05T04:25:52.999Z,4.10
2022-10-05T04:28:32.031Z,3.20
2022-10-05T04:31:04.914Z,3.87
2022-10-05T04:33:33.785Z,3.67
2022-10-05T04:36:24.768Z,5.77
2022-10-05T04:39:04.753Z,4.40
2022-10-05T04:41:52.050Z,4.20
2022-10-05T04:44:36.777Z,4.10
2022-10-05T04:47:29.298Z,4.77
2022-10-05T04:50:19.047Z,5.13
2022-10-05T04:52:56.502Z,5.50
2022-10-05T04:55:31.935Z,4.40
2022-10-05T04:58:07.426Z,4.67
2022-10-05T05:00:50.603Z,7.00
2022-10-05T05:03:46.333Z,4.37
2022-10-05T05:06:26.006Z,4.57
2022-10-05T05:09:21.573Z,5.53
2022-10-05T05:12:05.094Z,4.73
2022-10-05T05:14:48.029Z,7.33
2022-10-05T05:17:31.998Z,8.33
2022-10-05T05:20:13.788Z,5.33
2022-10-05T05:22:49.966Z,4.10
2022-10-05T05:25:35.147Z,4.23
2022-10-05T05:28:16.828Z,4.53
2022-10-05T05:30:50.059Z,4.47
2022-10-05T05:33:24.389Z,4.43
2022-10-05T05:36:19.458Z,4.60
2022-10-05T05:38:57.150Z,4.70
2022-10-05T05:41:37.836Z,4.33
2022-10-05T05:44:18.568Z,4.27
2022-10-05T05:47:09.611Z,4.30
2022-10-05T05:49:51.013Z,4.30
2022-10-05T05:52:25.106Z,6.27
2022-10-05T05:55:00.797Z,4.87
2022-10-05T05:57:36.190Z,18.97
2022-10-05T06:00:08.914Z,6.43
2022-10-05T06:02:42.341Z,4.70
2022-10-05T06:05:25.300Z,5.87
2022-10-05T06:07:55.772Z,4.77
2022-10-05T06:10:32.629Z,6.13
2022-10-05T06:13:08.938Z,5.47
2022-10-05T06:15:43.108Z,10.70
2022-10-05T06:18:13.497Z,4.90
2022-10-05T06:20:45.620Z,5.50
2022-10-05T06:23:18.507Z,7.57
2022-10-05T06:26:10.913Z,7.40
2022-10-05T06:28:40.717Z,5.60
2022-10-05T06:31:25.629Z,4.97
2022-10-05T06:33:57.496Z,5.90
2022-10-05T06:36:41.972Z,5.60
2022-10-05T06:39:32.993Z,5.40
2022-10-05T06:42:27.982Z,6.33
2022-10-05T06:45:03.210Z,6.63
2022-10-05T06:47:39.354Z,6.83
2022-10-05T06:50:16.883Z,5.13
2022-10-05T06:52:59.481Z,8.17
2022-10-05T06:55:37.195Z,6.70
2022-10-05T06:58:18.001Z,12.10
2022-10-05T07:00:53.845Z,9.93
2022-10-05T07:03:32.617Z,6.00
2022-10-05T07:06:08.086Z,6.87
2022-10-05T07:09:01.922Z,8.67
2022-10-05T07:11:44.275Z,6.43
2022-10-05T07:14:25.546Z,4.80
2022-10-05T07:17:06.421Z,10.00
2022-10-05T07:19:42.291Z,6.07
2022-10-05T07:22:34.486Z,6.60
2022-10-05T07:25:12.290Z,5.20
2022-10-05T07:27:50.985Z,5.57
2022-10-05T07:30:21.557Z,5.37
2022-10-05T07:33:01.441Z,6.90
2022-10-05T07:35:58.616Z,5.80
2022-10-05T07:38:33.095Z,7.37
2022-10-05T07:41:07.589Z,5.87
2022-10-05T07:44:01.505Z,6.37
2022-10-05T07:46:41.201Z,4.77
2022-10-05T07:49:18.936Z,6.00
2022-10-05T07:51:51.273Z,6.53
2022-10-05T07:54:24.297Z,5.90
2022-10-05T07:56:57.008Z,5.47
2022-10-05T07:59:35.754Z,7.22
2022-10-05T08:02:13.437Z,5.45
2022-10-05T08:04:53.301Z,4.90
2022-10-05T08:10:04.534Z,4.93
2022-10-05T08:12:37.482Z,12.70
2022-10-05T08:15:13.225Z,5.05
2022-10-05T08:17:50.278Z,21.08
2022-10-05T08:20:30.574Z,5.05
2022-10-05T08:23:03.446Z,4.13
2022-10-05T08:25:42.315Z,3.38
2022-10-05T08:28:19.142Z,3.40
2022-10-05T08:30:56.395Z,3.67
2022-10-05T08:33:28.423Z,3.20
2022-10-05T08:36:08.038Z,4.75
2022-10-05T08:38:36.531Z,4.47
2022-10-05T08:41:24.666Z,4.05
2022-10-05T08:44:22.376Z,3.28
2022-10-05T08:47:17.657Z,3.45
2022-10-05T08:50:16.096Z,2.75
2022-10-05T08:53:12.397Z,2.78
2022-10-05T08:55:53.212Z,2.53
2022-10-05T08:58:47.954Z,3.13
2022-10-05T09:01:24.313Z,3.00
2022-10-05T09:04:07.877Z,2.38
2022-10-05T09:07:01.000Z,2.53
2022-10-05T09:10:05.565Z,2.50
2022-10-05T09:13:08.482Z,2.58
2022-10-05T09:16:00.400Z,3.15
2022-10-05T09:18:56.102Z,2.40
2022-10-05T09:21:42.262Z,2.80
2022-10-05T09:24:29.567Z,1.55
2022-10-05T09:27:11.703Z,1.98
2022-10-05T09:30:09.324Z,2.05
2022-10-05T09:33:00.430Z,1.60
2022-10-05T09:36:02.177Z,1.48
2022-10-05T09:38:50.949Z,1.40
2022-10-05T09:41:46.930Z,1.50
2022-10-05T09:44:56.875Z,1.55
2022-10-05T09:48:04.888Z,1.40
2022-10-05T09:51:08.077Z,1.88
2022-10-05T09:54:21.453Z,1.23
2022-10-05T09:57:33.877Z,1.10
2022-10-05T10:00:26.978Z,1.08
2022-10-05T10:03:22.786Z,1.30
2022-10-05T10:06:40.111Z,1.20
2022-10-05T10:09:32.187Z,0.98
2022-10-05T10:12:23.379Z,2.30
2022-10-05T10:15:25.226Z,0.73
2022-10-05T10:18:22.581Z,1.00
2022-10-05T10:21:09.185Z,1.20
2022-10-05T10:24:00.327Z,1.88
2022-10-05T10:26:56.718Z,1.63
2022-10-05T10:29:58.216Z,1.17
2022-10-05T10:33:05.531Z,1.20
2022-10-05T10:35:37.122Z,0.80
2022-10-05T10:38:29.324Z,0.80
2022-10-05T10:41:33.354Z,0.93
2022-10-05T10:44:40.019Z,1.63
2022-10-05T10:47:45.632Z,1.60
2022-10-05T10:50:52.614Z,2.30
2022-10-05T10:54:03.604Z,1.52
2022-10-05T10:56:50.348Z,1.40
2022-10-05T10:59:49.002Z,1.35
2022-10-05T11:02:30.162Z,1.08
2022-10-05T11:05:31.083Z,1.38
2022-10-05T11:08:37.818Z,1.20
2022-10-05T11:11:35.554Z,0.80
2022-10-05T11:14:45.468Z,1.10
2022-10-05T11:17:31.893Z,0.95
2022-10-05T11:20:17.617Z,1.88
2022-10-05T11:22:59.017Z,0.93
2022-10-05T11:25:59.079Z,0.80
2022-10-05T11:28:50.230Z,1.13
2022-10-05T11:31:50.421Z,0.80
2022-10-05T11:34:40.231Z,0.65
2022-10-05T11:37:45.108Z,0.60
2022-10-05T11:40:34.571Z,0.75
2022-10-05T11:43:53.644Z,0.60
2022-10-05T11:46:29.822Z,1.60
2022-10-05T11:49:13.050Z,0.85
2022-10-05T11:51:52.185Z,4.32
2022-10-05T11:54:46.574Z,1.10
2022-10-05T11:57:37.759Z,1.15
2022-10-05T12:00:15.249Z,1.42
2022-10-05T12:03:18.484Z,1.00
2022-10-05T12:06:05.432Z,2.83
2022-10-05T12:08:47.192Z,0.85
2022-10-05T12:11:32.997Z,1.38
2022-10-05T12:14:07.608Z,0.80
2022-10-05T12:16:42.954Z,0.75
2022-10-05T12:19:18.849Z,1.42
2022-10-05T12:21:53.277Z,1.98
2022-10-05T12:24:28.109Z,1.80
2022-10-05T12:27:00.181Z,0.82
2022-10-05T12:29:33.520Z,1.25
2022-10-05T12:32:05.763Z,1.20
2022-10-05T12:34:47.850Z,0.85
2022-10-05T12:37:39.377Z,2.78
2022-10-05T12:40:24.747Z,0.85
2022-10-05T12:43:01.531Z,0.68
2022-10-05T12:45:38.614Z,0.73
2022-10-05T12:48:23.700Z,0.85
2022-10-05T12:50:56.820Z,4.43
2022-10-05T12:53:39.905Z,1.40
2022-10-05T12:56:13.583Z,1.10
2022-10-05T12:59:02.501Z,1.20
2022-10-05T13:01:40.239Z,2.25
2022-10-05T13:04:20.580Z,0.80
2022-10-05T13:07:15.051Z,1.65
2022-10-05T13:09:55.406Z,1.67
2022-10-05T13:12:36.043Z,1.23
2022-10-05T13:15:16.928Z,1.23
2022-10-05T13:17:51.865Z,0.95
2022-10-05T13:20:28.762Z,0.50
2022-10-05T13:23:06.769Z,1.15
2022-10-05T13:25:43.344Z,1.35
2022-10-05T13:28:19.689Z,1.42
2022-10-05T13:30:58.547Z,0.70
2022-10-05T13:33:40.422Z,0.63
2022-10-05T13:36:15.744Z,1.48
2022-10-05T13:38:56.342Z,2.95
2022-10-05T13:41:38.739Z,0.75
2022-10-05T13:44:18.076Z,0.50
2022-10-05T13:46:50.421Z,1.42
2022-10-05T13:49:26.427Z,0.73
2022-10-05T13:52:01.321Z,1.17
2022-10-05T13:54:39.786Z,0.70
2022-10-05T13:57:23.294Z,1.50
2022-10-05T13:59:55.153Z,1.63
2022-10-05T14:02:39.816Z,1.98
2022-10-05T14:05:18.161Z,0.98
2022-10-05T14:07:53.261Z,1.13
2022-10-05T14:10:38.429Z,1.90
2022-10-05T14:13:33.153Z,1.70
2022-10-05T14:16:19.726Z,1.75
2022-10-05T14:18:59.644Z,1.75
2022-10-05T14:21:30.780Z,1.38
2022-10-05T14:24:42.336Z,3.05
2022-10-05T14:27:23.366Z,1.08
2022-10-05T14:30:00.657Z,0.93
2022-10-05T14:32:32.442Z,1.00
2022-10-05T14:35:14.073Z,0.90
2022-10-05T14:37:51.612Z,0.63
2022-10-05T14:40:34.328Z,1.10
2022-10-05T14:43:18.715Z,1.55
2022-10-05T14:46:01.138Z,1.17
2022-10-05T14:48:39.253Z,1.10
2022-10-05T14:51:13.143Z,0.70
2022-10-05T14:53:43.625Z,1.38
2022-10-05T14:56:33.253Z,0.63
2022-10-05T14:59:25.776Z,0.75
2022-10-05T15:02:00.428Z,2.67
2022-10-05T15:04:46.138Z,1.90
2022-10-05T15:07:24.410Z,1.92
2022-10-05T15:10:07.919Z,1.10
2022-10-05T15:12:41.211Z,1.63
2022-10-05T15:15:37.513Z,1.95
2022-10-05T15:18:16.767Z,1.73
2022-10-05T15:20:55.250Z,0.93
2022-10-05T15:23:28.655Z,0.82
2022-10-05T15:26:07.702Z,0.95
2022-10-05T15:29:03.006Z,1.67
2022-10-05T15:31:41.871Z,1.95
2022-10-05T15:34:19.253Z,1.35
2022-10-05T15:36:55.976Z,1.00
2022-10-05T15:39:37.786Z,0.80
2022-10-05T15:42:09.451Z,2.13
2022-10-05T15:44:52.932Z,2.15
2022-10-05T15:47:26.888Z,1.52
2022-10-05T15:50:08.348Z,2.72
2022-10-05T15:52:42.051Z,1.50
2022-10-05T15:55:46.727Z,2.00
2022-10-05T15:58:40.158Z,2.53
2022-10-05T16:01:12.575Z,2.03
2022-10-05T16:03:54.565Z,1.92
2022-10-05T16:06:56.501Z,2.78
2022-10-05T16:09:47.312Z,1.25
2022-10-05T16:12:23.548Z,1.48
2022-10-05T16:14:59.881Z,2.90
2022-10-05T16:17:48.233Z,1.52
2022-10-05T16:20:31.637Z,2.28
2022-10-05T16:23:07.120Z,2.25
2022-10-05T16:25:51.922Z,2.85
2022-10-05T16:28:31.023Z,1.80
2022-10-05T16:31:08.079Z,3.53
2022-10-05T16:33:48.074Z,1.48
2022-10-05T16:36:31.783Z,6.07
2022-10-05T16:39:06.864Z,1.85
2022-10-05T16:42:06.056Z,3.83
2022-10-05T16:44:44.426Z,1.55
2022-10-05T16:47:35.843Z,1.80
2022-10-05T16:50:17.874Z,1.90
2022-10-05T16:52:52.045Z,2.42
2022-10-05T16:55:28.238Z,2.40
2022-10-05T16:58:00.272Z,3.03
2022-10-05T17:00:40.832Z,2.30
2022-10-05T17:03:28.546Z,3.40
2022-10-05T17:06:30.522Z,5.00
2022-10-05T17:09:18.680Z,4.15
2022-10-05T17:12:05.121Z,2.38
2022-10-05T17:14:48.979Z,2.60
2022-10-05T17:17:33.588Z,2.50
2022-10-05T17:20:18.220Z,2.15
2022-10-05T17:22:52.494Z,2.03
2022-10-05T17:25:29.683Z,1.90
2022-10-05T17:28:16.554Z,2.08
2022-10-05T17:31:08.491Z,2.97
2022-10-05T17:34:13.185Z,2.17
2022-10-05T17:36:47.645Z,2.65
2022-10-05T17:39:17.966Z,1.85
2022-10-05T17:41:47.154Z,2.08
2022-10-05T17:44:21.449Z,3.35
2022-10-05T17:46:54.034Z,2.72
2022-10-05T17:49:28.701Z,3.15
2022-10-05T17:52:33.251Z,2.13
2022-10-05T17:55:48.636Z,2.90
2022-10-05T17:59:02.276Z,2.78
2022-10-05T18:01:36.330Z,2.20
2022-10-05T18:04:37.906Z,2.53
2022-10-05T18:07:19.131Z,2.58
2022-10-05T18:09:59.260Z,2.67
2022-10-05T18:12:50.296Z,3.97
2022-10-05T18:15:45.216Z,4.72
2022-10-05T18:18:36.888Z,3.70
2022-10-05T18:21:24.103Z,2.58
2022-10-05T18:24:27.616Z,2.33
2022-10-05T18:27:08.241Z,2.40
2022-10-05T18:30:05.455Z,4.45
2022-10-05T18:32:55.604Z,7.43
2022-10-05T18:35:28.892Z,3.58
2022-10-05T18:38:09.227Z,6.50
2022-10-05T18:40:49.608Z,5.57
2022-10-05T18:43:27.715Z,8.88
2022-10-05T18:46:09.096Z,7.00
2022-10-05T18:48:47.769Z,6.15
2022-10-05T18:51:26.164Z,6.53
2022-10-05T18:54:10.921Z,6.10
2022-10-05T18:56:46.826Z,6.32
2022-10-05T18:59:29.140Z,4.85
2022-10-05T19:02:14.884Z,6.10
2022-10-05T19:04:55.798Z,5.35
2022-10-05T19:07:34.583Z,5.88
2022-10-05T19:10:14.931Z,4.35
2022-10-05T19:13:06.145Z,4.95
2022-10-05T19:15:41.738Z,6.93
2022-10-05T19:18:39.850Z,6.50
2022-10-05T19:21:21.462Z,5.23
2022-10-05T19:24:06.086Z,5.38
2022-10-05T19:26:52.118Z,6.03
2022-10-05T19:29:35.046Z,5.57
2022-10-05T19:32:07.075Z,5.93
2022-10-05T19:34:49.049Z,7.55
2022-10-05T19:37:24.932Z,4.95
2022-10-05T19:39:59.000Z,5.45
2022-10-05T19:42:46.168Z,11.43
2022-10-05T19:45:23.953Z,8.43
2022-10-05T19:48:07.467Z,5.22
2022-10-05T19:50:37.844Z,8.18
2022-10-05T19:53:14.124Z,8.30
2022-10-05T19:55:44.448Z,4.87
2022-10-05T19:58:24.320Z,6.85
2022-10-05T20:01:00.177Z,4.40
2022-10-05T20:03:29.541Z,5.83
2022-10-05T20:05:59.169Z,5.90
2022-10-05T20:08:31.882Z,4.53
2022-10-05T20:11:08.444Z,3.80
2022-10-05T20:13:36.698Z,5.53
2022-10-05T20:16:38.525Z,7.47
2022-10-05T20:19:49.097Z,5.47
2022-10-05T20:22:28.709Z,4.20
2022-10-05T20:24:58.608Z,5.33
2022-10-05T20:27:38.842Z,4.63
2022-10-05T20:30:08.567Z,4.30
2022-10-05T20:32:38.563Z,4.27
2022-10-05T20:35:07.903Z,12.40
2022-10-05T20:37:36.771Z,6.27
2022-10-05T20:40:05.628Z,4.20
2022-10-05T20:42:33.503Z,5.20
2022-10-05T20:45:01.540Z,5.97
2022-10-05T20:47:29.493Z,6.67
2022-10-05T20:49:58.990Z,6.30
2022-10-05T20:52:26.999Z,7.70
2022-10-05T20:54:56.636Z,4.77
2022-10-05T20:57:25.052Z,5.87
2022-10-05T20:59:52.983Z,5.23
2022-10-05T21:02:20.931Z,6.53
2022-10-05T21:04:49.103Z,5.07
2022-10-05T21:07:21.133Z,5.00
2022-10-05T21:09:49.091Z,5.20
2022-10-05T21:12:17.382Z,4.80
2022-10-05T21:14:46.227Z,4.10
2022-10-05T21:17:14.241Z,5.40
2022-10-05T21:19:42.175Z,5.93
2022-10-05T21:22:11.215Z,5.20
2022-10-05T21:24:42.056Z,7.20
2022-10-05T21:27:10.675Z,6.17
2022-10-05T21:29:41.051Z,6.87
2022-10-05T21:32:11.740Z,8.07
2022-10-05T21:34:40.240Z,5.43
2022-10-05T21:37:08.838Z,4.00
2022-10-05T21:39:36.854Z,8.40
2022-10-05T21:42:06.384Z,10.03
2022-10-05T21:44:34.370Z,5.03
2022-10-05T21:47:02.563Z,4.73
2022-10-05T21:49:31.250Z,5.33
2022-10-05T21:52:01.373Z,5.37
2022-10-05T21:54:29.436Z,3.33
2022-10-05T21:56:58.711Z,4.17
2022-10-05T21:59:34.037Z,3.83
2022-10-05T22:02:02.461Z,4.97
2022-10-05T22:04:30.465Z,3.43
2022-10-05T22:06:58.712Z,3.90
2022-10-05T22:09:26.953Z,4.97
2022-10-05T22:11:54.982Z,4.87
2022-10-05T22:14:23.165Z,4.80
2022-10-05T22:16:53.529Z,4.00
2022-10-05T22:19:21.854Z,2.87
2022-10-05T22:21:49.804Z,2.87
2022-10-05T22:24:17.663Z,6.10
2022-10-05T22:26:51.451Z,3.40
2022-10-05T22:29:20.651Z,3.73
2022-10-05T22:31:49.301Z,3.93
2022-10-05T22:34:19.315Z,3.47
2022-10-05T22:36:47.540Z,3.13
2022-10-05T22:39:16.278Z,5.20
2022-10-05T22:41:44.662Z,2.30
2022-10-05T22:44:12.709Z,3.33
2022-10-05T22:46:40.707Z,4.87
2022-10-05T22:49:08.679Z,4.00
2022-10-05T22:51:38.176Z,3.53
2022-10-05T22:54:06.635Z,3.50
2022-10-05T22:56:34.523Z,5.17
2022-10-05T22:59:02.429Z,3.20
2022-10-05T23:01:30.374Z,4.87
2022-10-05T23:03:58.326Z,4.70
2022-10-05T23:06:26.756Z,3.20
2022-10-05T23:08:56.447Z,5.33
2022-10-05T23:11:26.378Z,3.63
2022-10-05T23:13:56.952Z,5.40
2022-10-05T23:16:27.573Z,4.37
2022-10-05T23:18:56.055Z,3.70
2022-10-05T23:21:26.122Z,3.43
2022-10-05T23:23:55.394Z,5.10
2022-10-05T23:26:26.465Z,3.97
2022-10-05T23:28:54.795Z,4.03
2022-10-05T23:31:24.614Z,4.63
2022-10-05T23:33:52.832Z,3.37
2022-10-05T23:36:23.032Z,3.90
2022-10-05T23:38:51.537Z,3.80
2022-10-05T23:41:21.178Z,4.57
2022-10-05T23:43:49.277Z,4.57
2022-10-05T23:46:17.943Z,6.40
2022-10-05T23:48:45.900Z,3.03
2022-10-05T23:51:15.573Z,3.50
2022-10-05T23:53:43.862Z,3.77
2022-10-05T23:56:11.843Z,6.07
2022-10-05T23:58:41.376Z,3.33
